20TS weather

Bains Private Airport
Bandera, Texas, United States

Public forecast

Using degrees Fahrenheit for public forecast. Weather courtesy of forecast.io.

METAR (pilot weather report)

Closest report is Kerrville Municipal Louis Schreiner Field, 10.1 nm (18.6 km) N. Retrieved 2019/07/19 15:35 UTC (0 seconds ago):

KERV 191535Z AUTO 19010KT OVC023 28/22 A3004 RMK AO2 T02750218 PWINO

TAF (pilot weather forecast)

Closest forecast is San Antonio International Airport, 35.3 nm (65.5 km) ESE. Retrieved 2019/07/19 12:36 UTC (3 hours ago):

TAF KSAT 191134Z 1912/2018 17010KT P6SM BKN010 FM191400 16013G23KT P6SM SCT025 FM192100 14014KT P6SM FEW050 SCT250 FM200400 18011KT P6SM FEW250